Portada
METAR-TAF:

METAR-TAF

Aeroports :

Wangaratta, Austràlia

latitud: 36-24-57S, longitud: 146-18-25E, altitud: 154 m

Observació

L'informe es va fer fa 7 minuts, a les 01:00 UTC
Vent 8 kt del Oest, variant entre Sud-Oest i Nord-Oest
Temperatura 25°C
Humitat 30%
Pressió 1012 hPa
Visibilitat 10 km o més

METAR: YWGT 220100Z AUTO 28008KT 220V320 9999 // NCD 25/06 Q1012

Hora: 12:07 (01:07 UTC)

Pronòstic

L'informe es va fer fa 7 hores i 6 minuts, a les 18:01 UTC
Pronòstic vàlid del 21 a les 19 UTC al 22 a les 08 UTC
Vent 12 kt del Oest/Sud-Oest
Visibilitat 10 km o més
sense núvols per sota de 1500 mi sense presència de cumulonimbus.

TAF: YWGT 211801Z 2119/2208 25012KT CAVOK

Observacions i pronòstics meteorològics de més de 4000 aeroports (METAR i TAF).

Les estacions disponibles són els punts grocs i vermells al mapa.

Posi el ratolí al punt desitjat per veure el nom de l'estació.

Feu clic per veure les observacions i els pronòstics meteorològics.

Per canviar el mapa: feu clic els botons verds amb una creu de color negre per apropar; al botó verd amb un guió per allunyar la imatge; o en les fletxes verdes per a mapes adjacents.


METAR-TAF: